createdAt,value
2023-01-20T00:00:41.599Z,0.52
2023-01-20T00:03:07.924Z,0.59
2023-01-20T00:05:35.569Z,0.54
2023-01-20T00:08:01.897Z,0.52
2023-01-20T00:10:28.192Z,0.49
2023-01-20T00:12:54.889Z,0.48
2023-01-20T00:15:21.211Z,0.48
2023-01-20T00:17:47.534Z,0.49
2023-01-20T00:20:13.872Z,0.50
2023-01-20T00:22:41.525Z,0.50
2023-01-20T00:25:08.740Z,0.51
2023-01-20T00:27:35.071Z,0.52
2023-01-20T00:30:01.399Z,0.52
2023-01-20T00:32:27.696Z,0.52
2023-01-20T00:34:54.054Z,0.50
2023-01-20T00:37:20.351Z,0.51
2023-01-20T00:39:48.005Z,0.51
2023-01-20T00:42:14.340Z,0.55
2023-01-20T00:44:40.657Z,0.62
2023-01-20T00:47:06.962Z,0.62
2023-01-20T00:49:33.321Z,0.63
2023-01-20T00:51:59.602Z,0.65
2023-01-20T00:54:25.916Z,0.56
2023-01-20T00:56:53.555Z,0.54
2023-01-20T00:59:19.873Z,0.49
2023-01-20T01:01:46.279Z,0.53
2023-01-20T01:04:12.675Z,0.47
2023-01-20T01:06:39.015Z,0.42
2023-01-20T01:09:05.438Z,0.41
2023-01-20T01:11:31.783Z,0.38
2023-01-20T01:13:59.431Z,0.32
2023-01-20T01:16:25.858Z,0.32
2023-01-20T01:18:52.903Z,0.29
2023-01-20T01:21:19.190Z,0.30
2023-01-20T01:23:45.536Z,0.34
2023-01-20T01:26:12.110Z,0.36
2023-01-20T01:28:38.440Z,0.35
2023-01-20T01:31:07.284Z,0.43
2023-01-20T01:33:34.054Z,0.38
2023-01-20T01:36:01.494Z,0.34
2023-01-20T01:38:28.339Z,0.38
2023-01-20T01:40:55.564Z,0.47
2023-01-20T01:43:23.640Z,0.40
2023-01-20T01:45:50.138Z,0.38
2023-01-20T01:48:19.449Z,0.42
2023-01-20T01:50:48.441Z,0.50
2023-01-20T01:53:15.037Z,0.41
2023-01-20T01:55:42.683Z,0.46
2023-01-20T01:58:11.545Z,0.53
2023-01-20T02:00:38.772Z,0.53
2023-01-20T02:03:05.732Z,0.53
2023-01-20T02:05:35.051Z,0.61
2023-01-20T02:08:01.620Z,0.58
2023-01-20T02:10:28.184Z,0.53
2023-01-20T02:12:54.743Z,0.48
2023-01-20T02:15:23.542Z,0.47
2023-01-20T02:17:56.800Z,0.46
2023-01-20T02:20:47.861Z,0.45
2023-01-20T02:23:19.094Z,0.47
2023-01-20T02:26:01.904Z,0.48
2023-01-20T02:28:41.455Z,0.51
2023-01-20T02:31:21.617Z,0.50
2023-01-20T02:33:51.368Z,0.51
2023-01-20T02:36:24.862Z,0.52
2023-01-20T02:38:55.802Z,0.55
2023-01-20T02:41:26.048Z,0.58
2023-01-20T02:43:56.391Z,0.59
2023-01-20T02:46:25.355Z,0.58
2023-01-20T02:48:55.357Z,0.59
2023-01-20T02:51:24.879Z,0.62
2023-01-20T02:53:52.296Z,0.60
2023-01-20T02:56:20.946Z,0.62
2023-01-20T02:58:48.928Z,0.59
2023-01-20T03:01:17.194Z,0.54
2023-01-20T03:03:45.752Z,0.56
2023-01-20T03:06:16.950Z,0.57
2023-01-20T03:08:43.613Z,0.57
2023-01-20T03:11:09.987Z,0.62
2023-01-20T03:13:39.167Z,0.62
2023-01-20T03:16:07.667Z,0.58
2023-01-20T03:18:34.806Z,0.58
2023-01-20T03:21:02.259Z,0.59
2023-01-20T03:23:31.895Z,0.55
2023-01-20T03:25:58.932Z,0.57
2023-01-20T03:28:25.410Z,0.54
2023-01-20T03:30:52.075Z,0.53
2023-01-20T03:33:18.492Z,0.61
2023-01-20T03:35:44.834Z,0.62
2023-01-20T03:38:11.371Z,0.59
2023-01-20T03:40:42.342Z,0.58
2023-01-20T03:43:12.242Z,0.57
2023-01-20T03:45:41.060Z,0.64
2023-01-20T03:48:11.075Z,0.59
2023-01-20T03:50:40.790Z,0.62
2023-01-20T03:53:12.373Z,0.62
2023-01-20T03:55:42.246Z,0.58
2023-01-20T03:58:10.808Z,0.60
2023-01-20T04:00:38.873Z,0.64
2023-01-20T04:03:07.524Z,0.68
2023-01-20T04:05:34.726Z,0.64
2023-01-20T04:08:03.448Z,0.65
2023-01-20T04:10:31.321Z,0.61
2023-01-20T04:12:59.012Z,0.65
2023-01-20T04:15:28.512Z,0.62
2023-01-20T04:17:55.997Z,0.61
2023-01-20T04:20:22.359Z,0.60
2023-01-20T04:22:50.662Z,0.69
2023-01-20T04:25:20.709Z,0.67
2023-01-20T04:27:47.009Z,0.69
2023-01-20T04:30:15.098Z,0.66
2023-01-20T04:32:41.383Z,0.67
2023-01-20T04:35:09.283Z,0.67
2023-01-20T04:37:35.608Z,0.68
2023-01-20T04:40:01.877Z,0.65
2023-01-20T04:42:28.476Z,0.65
2023-01-20T04:44:54.791Z,0.72
2023-01-20T04:47:22.478Z,0.66
2023-01-20T04:49:48.872Z,0.68
2023-01-20T04:52:15.924Z,0.68
2023-01-20T04:54:42.224Z,0.65
2023-01-20T04:57:08.534Z,0.62
2023-01-20T04:59:34.878Z,0.63
2023-01-20T05:02:01.228Z,0.68
2023-01-20T05:04:28.983Z,0.66
2023-01-20T05:06:55.297Z,0.58
2023-01-20T05:09:21.734Z,0.55
2023-01-20T05:11:48.184Z,0.49
2023-01-20T05:14:14.676Z,0.49
2023-01-20T05:16:41.002Z,0.55
2023-01-20T05:19:07.300Z,0.59
2023-01-20T05:21:34.980Z,0.49
2023-01-20T05:24:01.328Z,0.46
2023-01-20T05:26:27.753Z,0.46
2023-01-20T05:28:54.108Z,0.46
2023-01-20T05:31:20.533Z,0.45
2023-01-20T05:33:46.941Z,0.46
2023-01-20T05:36:13.372Z,0.49
2023-01-20T05:38:41.001Z,0.49
2023-01-20T05:41:08.099Z,0.50
2023-01-20T05:43:34.748Z,0.48
2023-01-20T05:46:01.625Z,0.47
2023-01-20T05:48:27.954Z,0.52
2023-01-20T05:50:54.311Z,0.52
2023-01-20T05:53:20.693Z,0.54
2023-01-20T05:55:48.688Z,0.57
2023-01-20T05:58:15.097Z,0.58
2023-01-20T06:00:41.430Z,0.62
2023-01-20T06:03:07.739Z,0.58
2023-01-20T06:05:34.040Z,0.57
2023-01-20T06:08:00.328Z,0.60
2023-01-20T06:10:26.661Z,0.60
2023-01-20T06:12:54.920Z,0.61
2023-01-20T06:15:21.355Z,0.62
2023-01-20T06:17:47.681Z,0.55
2023-01-20T06:20:14.000Z,0.59
2023-01-20T06:22:40.306Z,0.61
2023-01-20T06:25:06.882Z,0.56
2023-01-20T06:27:33.229Z,0.63
2023-01-20T06:30:00.871Z,0.65
2023-01-20T06:32:27.382Z,0.61
2023-01-20T06:34:53.725Z,0.59
2023-01-20T06:37:20.071Z,0.59
2023-01-20T06:39:46.398Z,0.62
2023-01-20T06:42:12.727Z,0.62
2023-01-20T06:44:39.048Z,0.64
2023-01-20T06:47:06.741Z,0.64
2023-01-20T06:49:33.102Z,0.57
2023-01-20T06:51:59.558Z,0.62
2023-01-20T06:54:25.848Z,0.62
2023-01-20T06:56:52.161Z,0.60
2023-01-20T06:59:18.473Z,0.61
2023-01-20T07:01:44.948Z,0.64
2023-01-20T07:04:13.764Z,0.64
2023-01-20T07:06:40.939Z,0.67
2023-01-20T07:09:08.180Z,0.65
2023-01-20T07:11:34.504Z,0.67
2023-01-20T07:14:00.820Z,0.65
2023-01-20T07:16:27.388Z,0.69
2023-01-20T07:18:53.869Z,0.71
2023-01-20T07:21:23.027Z,0.75
2023-01-20T07:23:50.672Z,0.70
2023-01-20T07:26:17.772Z,0.72
2023-01-20T07:28:44.230Z,0.73
2023-01-20T07:31:13.933Z,0.69
2023-01-20T07:33:40.339Z,0.69
2023-01-20T07:36:07.278Z,0.69
2023-01-20T07:38:35.140Z,0.69
2023-01-20T07:41:04.736Z,0.68
2023-01-20T07:43:31.610Z,0.70
2023-01-20T07:45:58.867Z,0.71
2023-01-20T07:48:25.754Z,0.70
2023-01-20T07:50:54.925Z,0.74
2023-01-20T07:53:21.248Z,0.75
2023-01-20T07:55:48.884Z,0.72
2023-01-20T07:58:15.234Z,0.71
2023-01-20T08:00:41.620Z,0.74
2023-01-20T08:03:07.982Z,0.73
2023-01-20T08:05:34.258Z,0.76
2023-01-20T08:08:00.569Z,0.71
2023-01-20T08:10:26.886Z,0.75
2023-01-20T08:12:54.586Z,0.76
2023-01-20T08:15:20.922Z,0.75
2023-01-20T08:17:47.341Z,0.75
2023-01-20T08:20:13.671Z,0.76
2023-01-20T08:22:39.953Z,0.80
2023-01-20T08:25:06.798Z,0.80
2023-01-20T08:27:33.165Z,0.80
2023-01-20T08:30:00.838Z,0.81
2023-01-20T08:32:27.183Z,0.79
2023-01-20T08:34:53.570Z,0.78
2023-01-20T08:37:19.909Z,0.78
2023-01-20T08:39:46.207Z,0.77
2023-01-20T08:42:12.491Z,0.77
2023-01-20T08:44:38.790Z,0.78
2023-01-20T08:47:06.493Z,0.75
2023-01-20T08:49:32.935Z,0.76
2023-01-20T08:51:59.228Z,0.73
2023-01-20T08:54:25.570Z,0.73
2023-01-20T08:56:52.457Z,0.70
2023-01-20T08:59:18.907Z,0.70
2023-01-20T09:01:45.273Z,0.73
2023-01-20T09:04:12.941Z,0.76
2023-01-20T09:06:40.476Z,0.74
2023-01-20T09:09:07.077Z,0.73
2023-01-20T09:11:33.441Z,0.77
2023-01-20T09:13:59.882Z,0.78
2023-01-20T09:16:26.192Z,0.76
2023-01-20T09:18:52.481Z,0.78
2023-01-20T09:21:20.134Z,0.80
2023-01-20T09:23:46.408Z,0.81
2023-01-20T09:26:14.466Z,0.82
2023-01-20T09:28:44.073Z,0.85
2023-01-20T09:31:10.465Z,0.85
2023-01-20T09:33:37.698Z,0.84
2023-01-20T09:36:04.678Z,0.85
2023-01-20T09:38:32.406Z,0.86
2023-01-20T09:41:05.677Z,0.87
2023-01-20T09:43:36.599Z,0.87
2023-01-20T09:46:07.547Z,0.87
2023-01-20T09:48:38.057Z,0.85
2023-01-20T09:51:11.059Z,0.84
2023-01-20T09:53:47.322Z,0.86
2023-01-20T09:56:14.622Z,0.87
2023-01-20T09:58:44.492Z,0.86
2023-01-20T10:01:13.427Z,0.85
2023-01-20T10:03:41.959Z,0.87
2023-01-20T10:06:11.532Z,0.88
2023-01-20T10:08:55.911Z,0.88
2023-01-20T10:11:33.230Z,0.91
2023-01-20T10:14:03.121Z,0.92
2023-01-20T10:16:31.801Z,0.90
2023-01-20T10:19:00.940Z,0.95
2023-01-20T10:21:31.396Z,0.92
2023-01-20T10:24:02.440Z,0.95
2023-01-20T10:26:30.634Z,0.99
2023-01-20T10:28:59.758Z,0.99
2023-01-20T10:31:28.012Z,1.04
2023-01-20T10:33:56.085Z,1.05
2023-01-20T10:36:25.549Z,1.07
2023-01-20T10:38:53.712Z,1.08
2023-01-20T10:41:26.883Z,1.08
2023-01-20T10:43:53.477Z,1.09
2023-01-20T10:46:30.967Z,1.08
2023-01-20T10:49:07.866Z,1.10
2023-01-20T10:51:38.954Z,1.13
2023-01-20T10:54:14.309Z,1.13
2023-01-20T10:56:43.971Z,1.15
2023-01-20T10:59:13.190Z,1.17
2023-01-20T11:01:40.255Z,1.16
2023-01-20T11:04:10.788Z,1.15
2023-01-20T11:06:38.652Z,1.14
2023-01-20T11:09:14.377Z,1.16
2023-01-20T11:11:40.956Z,1.14
2023-01-20T11:14:08.694Z,1.15
2023-01-20T11:16:35.075Z,1.19
2023-01-20T11:19:02.536Z,1.23
2023-01-20T11:21:30.207Z,1.22
2023-01-20T11:23:57.007Z,1.24
2023-01-20T11:26:27.839Z,1.26
2023-01-20T11:28:56.184Z,1.26
2023-01-20T11:31:36.319Z,1.25
2023-01-20T11:34:10.844Z,1.24
2023-01-20T11:36:37.168Z,1.24
2023-01-20T11:39:06.748Z,1.25
2023-01-20T11:41:33.064Z,1.28
2023-01-20T11:44:00.145Z,1.31
2023-01-20T11:46:29.566Z,1.34
2023-01-20T11:49:12.937Z,1.36
2023-01-20T11:51:45.333Z,1.39
2023-01-20T11:54:14.894Z,1.44
2023-01-20T11:56:43.043Z,1.46
2023-01-20T11:59:18.303Z,1.48
2023-01-20T12:01:54.378Z,1.52
2023-01-20T12:04:35.209Z,1.50
2023-01-20T12:07:03.439Z,1.50
2023-01-20T12:09:32.649Z,1.49
2023-01-20T12:12:01.474Z,1.46
2023-01-20T12:14:29.481Z,1.46
2023-01-20T12:17:03.405Z,1.46
2023-01-20T12:19:33.947Z,1.47
2023-01-20T12:22:03.052Z,1.51
2023-01-20T12:24:42.552Z,1.53
2023-01-20T12:27:15.069Z,1.57
2023-01-20T12:29:42.885Z,1.60
2023-01-20T12:32:10.809Z,1.62
2023-01-20T12:34:37.824Z,1.63
2023-01-20T12:37:12.269Z,1.65
2023-01-20T12:39:52.499Z,1.67
2023-01-20T12:42:43.612Z,1.68
2023-01-20T12:45:16.869Z,1.71
2023-01-20T12:47:51.300Z,1.77
2023-01-20T12:50:32.513Z,1.84
2023-01-20T12:53:05.062Z,1.97
2023-01-20T12:55:37.486Z,2.06
2023-01-20T12:58:11.977Z,2.08
2023-01-20T13:00:51.293Z,2.10
2023-01-20T13:03:32.184Z,2.14
2023-01-20T13:06:10.257Z,2.24
2023-01-20T13:08:41.824Z,2.32
2023-01-20T13:11:15.581Z,2.38
2023-01-20T13:13:56.324Z,2.46
2023-01-20T13:16:29.388Z,2.50
2023-01-20T13:19:00.003Z,2.53
2023-01-20T13:21:26.612Z,2.51
2023-01-20T13:23:53.025Z,2.45
2023-01-20T13:26:19.763Z,2.40
2023-01-20T13:28:52.942Z,2.36
2023-01-20T13:31:30.010Z,2.31
2023-01-20T13:34:20.157Z,2.18
2023-01-20T13:37:18.634Z,2.16
2023-01-20T13:39:45.847Z,2.17
2023-01-20T13:42:26.999Z,2.13
2023-01-20T13:45:08.234Z,2.13
2023-01-20T13:48:07.521Z,2.11
2023-01-20T13:50:35.819Z,2.07
2023-01-20T13:53:23.578Z,2.04
2023-01-20T13:55:51.498Z,2.03
2023-01-20T13:58:18.680Z,2.00
2023-01-20T14:00:45.931Z,1.93
2023-01-20T14:03:17.631Z,1.88
2023-01-20T14:05:48.228Z,1.77
2023-01-20T14:08:14.572Z,1.75
2023-01-20T14:10:40.975Z,1.70
2023-01-20T14:13:08.892Z,1.59
2023-01-20T14:15:36.510Z,1.59
2023-01-20T14:18:03.029Z,1.61
2023-01-20T14:20:29.682Z,1.58
2023-01-20T14:23:14.750Z,1.57
2023-01-20T14:25:41.252Z,1.56
2023-01-20T14:28:17.850Z,1.52
2023-01-20T14:30:44.318Z,1.53
2023-01-20T14:33:14.843Z,1.54
2023-01-20T14:35:41.462Z,1.54
2023-01-20T14:38:16.303Z,1.55
2023-01-20T14:40:42.788Z,1.54
2023-01-20T14:43:14.845Z,1.52
2023-01-20T14:45:43.280Z,1.51
2023-01-20T14:48:10.832Z,1.53
2023-01-20T14:50:37.773Z,1.49
2023-01-20T14:53:04.233Z,1.49
2023-01-20T14:55:33.161Z,1.48
2023-01-20T14:58:00.169Z,1.42
2023-01-20T15:00:27.419Z,1.42
2023-01-20T15:03:10.342Z,1.43
2023-01-20T15:05:38.560Z,1.41
2023-01-20T15:08:06.313Z,1.39
2023-01-20T15:10:33.982Z,1.37
2023-01-20T15:13:00.524Z,1.38
2023-01-20T15:15:28.169Z,1.34
2023-01-20T15:18:13.193Z,1.35
2023-01-20T15:20:41.015Z,1.34
2023-01-20T15:23:11.964Z,1.36
2023-01-20T15:25:39.616Z,1.29
2023-01-20T15:28:05.917Z,1.24
2023-01-20T15:30:32.258Z,1.24
2023-01-20T15:32:58.578Z,1.21
2023-01-20T15:35:25.072Z,1.20
2023-01-20T15:37:52.094Z,1.18
2023-01-20T15:40:19.684Z,1.14
2023-01-20T15:42:49.558Z,1.15
2023-01-20T15:45:16.290Z,1.15
2023-01-20T15:47:43.437Z,1.07
2023-01-20T15:50:14.656Z,1.10
2023-01-20T15:52:41.165Z,1.12
2023-01-20T15:55:08.340Z,1.06
2023-01-20T15:57:34.667Z,1.05
2023-01-20T16:00:02.520Z,1.03
2023-01-20T16:02:28.856Z,1.06
2023-01-20T16:04:55.171Z,1.04
2023-01-20T16:07:21.470Z,1.02
2023-01-20T16:09:47.957Z,1.02
2023-01-20T16:12:14.877Z,1.02
2023-01-20T16:14:41.592Z,1.01
2023-01-20T16:17:13.659Z,1.00
2023-01-20T16:19:40.005Z,1.01
2023-01-20T16:22:06.407Z,1.02
2023-01-20T16:24:32.722Z,1.00
2023-01-20T16:26:59.101Z,1.01
2023-01-20T16:29:25.380Z,1.00
2023-01-20T16:31:51.804Z,0.99
2023-01-20T16:34:19.513Z,0.97
2023-01-20T16:36:45.835Z,0.97
2023-01-20T16:39:12.133Z,0.95
2023-01-20T16:41:38.429Z,0.96
2023-01-20T16:44:04.810Z,0.96
2023-01-20T16:46:31.710Z,0.98
2023-01-20T16:48:58.008Z,0.97
2023-01-20T16:51:25.924Z,0.99
2023-01-20T16:53:52.298Z,0.96
2023-01-20T16:56:20.004Z,0.97
2023-01-20T16:58:47.307Z,0.97
2023-01-20T17:01:13.674Z,0.97
2023-01-20T17:03:40.540Z,1.00
2023-01-20T17:06:10.803Z,1.01
2023-01-20T17:08:38.493Z,0.97
2023-01-20T17:11:05.153Z,1.01
2023-01-20T17:13:31.496Z,1.00
2023-01-20T17:15:57.838Z,0.99
2023-01-20T17:18:24.187Z,1.01
2023-01-20T17:20:50.515Z,0.99
2023-01-20T17:23:16.834Z,1.01
2023-01-20T17:25:44.492Z,1.03
2023-01-20T17:28:10.819Z,1.03
2023-01-20T17:30:37.794Z,1.04
2023-01-20T17:33:04.137Z,1.03
2023-01-20T17:35:30.464Z,1.00
2023-01-20T17:37:57.079Z,1.01
2023-01-20T17:40:23.443Z,0.99
2023-01-20T17:42:53.196Z,1.04
2023-01-20T17:45:19.531Z,1.02
2023-01-20T17:47:49.229Z,1.04
2023-01-20T17:50:16.107Z,1.02
2023-01-20T17:52:42.588Z,1.04
2023-01-20T17:55:09.459Z,1.01
2023-01-20T17:57:35.777Z,1.02
2023-01-20T18:00:03.854Z,1.03
2023-01-20T18:02:30.331Z,1.07
2023-01-20T18:04:56.685Z,1.06
2023-01-20T18:07:23.021Z,1.05
2023-01-20T18:09:49.301Z,1.05
2023-01-20T18:12:15.671Z,1.06
2023-01-20T18:14:42.008Z,1.04
2023-01-20T18:17:09.737Z,1.01
2023-01-20T18:19:36.063Z,1.00
2023-01-20T18:22:02.340Z,1.00
2023-01-20T18:24:28.663Z,0.99
2023-01-20T18:26:56.265Z,0.96
2023-01-20T18:29:24.225Z,0.94
2023-01-20T18:31:50.621Z,0.90
2023-01-20T18:34:18.347Z,0.86
2023-01-20T18:36:45.306Z,0.82
2023-01-20T18:39:14.056Z,0.79
2023-01-20T18:41:40.389Z,0.75
2023-01-20T18:44:06.925Z,0.72
2023-01-20T18:46:33.331Z,0.70
2023-01-20T18:49:00.170Z,0.68
2023-01-20T18:51:28.666Z,0.66
2023-01-20T18:53:56.647Z,0.62
2023-01-20T18:56:23.605Z,0.53
2023-01-20T18:58:49.964Z,0.52
2023-01-20T19:01:17.740Z,0.48
2023-01-20T19:03:44.490Z,0.49
2023-01-20T19:06:11.561Z,0.47
2023-01-20T19:08:39.620Z,0.43
2023-01-20T19:11:07.220Z,0.42
2023-01-20T19:13:33.585Z,0.42
2023-01-20T19:15:59.932Z,0.39
2023-01-20T19:18:26.462Z,0.36
2023-01-20T19:20:52.777Z,0.34
2023-01-20T19:23:19.124Z,0.33
2023-01-20T19:25:46.778Z,0.27
2023-01-20T19:28:13.075Z,0.27
2023-01-20T19:30:39.584Z,0.25
2023-01-20T19:33:05.870Z,0.23
2023-01-20T19:35:33.401Z,0.17
2023-01-20T19:37:59.706Z,0.12
2023-01-20T19:40:26.033Z,0.12
2023-01-20T19:42:53.717Z,0.10
2023-01-20T19:45:20.049Z,0.08
2023-01-20T19:47:46.325Z,0.04
2023-01-20T19:50:12.623Z,0.00
2023-01-20T19:52:38.919Z,-0.01
2023-01-20T19:55:05.678Z,-0.03
2023-01-20T19:57:32.027Z,-0.03
2023-01-20T19:59:59.715Z,-0.02
2023-01-20T20:02:26.055Z,-0.03
2023-01-20T20:04:52.380Z,-0.10
2023-01-20T20:07:18.681Z,-0.13
2023-01-20T20:09:44.956Z,-0.12
2023-01-20T20:12:11.275Z,-0.17
2023-01-20T20:14:37.586Z,-0.17
2023-01-20T20:17:05.241Z,-0.17
2023-01-20T20:19:31.548Z,-0.23
2023-01-20T20:21:57.837Z,-0.22
2023-01-20T20:24:24.141Z,-0.23
2023-01-20T20:26:50.468Z,-0.23
2023-01-20T20:29:18.010Z,-0.25
2023-01-20T20:31:44.365Z,-0.26
2023-01-20T20:34:12.938Z,-0.24
2023-01-20T20:36:39.605Z,-0.27
2023-01-20T20:39:05.913Z,-0.30
2023-01-20T20:41:32.239Z,-0.30
2023-01-20T20:43:59.104Z,-0.32
2023-01-20T20:46:25.420Z,-0.36
2023-01-20T20:48:52.706Z,-0.38
2023-01-20T20:51:20.422Z,-0.42
2023-01-20T20:53:46.757Z,-0.44
2023-01-20T20:56:13.924Z,-0.46
2023-01-20T20:58:55.195Z,-0.47
2023-01-20T21:01:27.017Z,-0.45
2023-01-20T21:03:53.344Z,-0.44
2023-01-20T21:06:20.959Z,-0.45
2023-01-20T21:08:47.252Z,-0.47
2023-01-20T21:11:13.759Z,-0.48
2023-01-20T21:13:40.134Z,-0.51
2023-01-20T21:16:07.725Z,-0.51
2023-01-20T21:18:34.058Z,-0.53
2023-01-20T21:21:01.235Z,-0.56
2023-01-20T21:23:29.556Z,-0.55
2023-01-20T21:25:59.988Z,-0.53
2023-01-20T21:28:26.307Z,-0.52
2023-01-20T21:30:52.634Z,-0.50
2023-01-20T21:33:18.966Z,-0.46
2023-01-20T21:35:45.650Z,-0.41
2023-01-20T21:38:12.387Z,-0.49
2023-01-20T21:40:40.317Z,-0.54
2023-01-20T21:43:06.675Z,-0.53
2023-01-20T21:45:32.987Z,-0.56
2023-01-20T21:47:59.295Z,-0.52
2023-01-20T21:50:25.686Z,-0.61
2023-01-20T21:52:52.018Z,-0.66
2023-01-20T21:55:18.928Z,-0.69
2023-01-20T21:57:46.923Z,-0.70
2023-01-20T22:00:13.918Z,-0.69
2023-01-20T22:02:40.813Z,-0.65
2023-01-20T22:05:07.499Z,-0.69
2023-01-20T22:07:33.863Z,-0.74
2023-01-20T22:10:00.213Z,-0.70
2023-01-20T22:12:26.570Z,-0.78
2023-01-20T22:14:54.353Z,-0.70
2023-01-20T22:17:20.659Z,-0.66
2023-01-20T22:19:46.993Z,-0.62
2023-01-20T22:22:15.196Z,-0.60
2023-01-20T22:24:41.695Z,-0.58
2023-01-20T22:27:08.036Z,-0.65
2023-01-20T22:29:34.347Z,-0.61
2023-01-20T22:32:02.021Z,-0.65
2023-01-20T22:34:28.509Z,-0.65
2023-01-20T22:36:55.322Z,-0.70
2023-01-20T22:39:21.635Z,-0.67
2023-01-20T22:41:48.016Z,-0.68
2023-01-20T22:44:14.453Z,-0.56
2023-01-20T22:46:40.772Z,-0.78
2023-01-20T22:49:08.949Z,-0.76
2023-01-20T22:51:35.288Z,-0.86
2023-01-20T22:54:01.724Z,-0.88
2023-01-20T22:56:28.746Z,-0.89
2023-01-20T22:58:55.441Z,-0.88
2023-01-20T23:01:22.695Z,-0.90
2023-01-20T23:03:52.878Z,-0.97
2023-01-20T23:06:20.872Z,-1.04
2023-01-20T23:08:47.192Z,-1.07
2023-01-20T23:11:14.805Z,-1.04
2023-01-20T23:13:41.424Z,-1.09
2023-01-20T23:16:10.249Z,-1.08
2023-01-20T23:18:36.804Z,-1.10
2023-01-20T23:21:03.295Z,-1.10
2023-01-20T23:23:31.253Z,-1.10
2023-01-20T23:26:01.114Z,-1.13
2023-01-20T23:28:27.421Z,-1.10
2023-01-20T23:30:58.412Z,-1.10
2023-01-20T23:33:24.827Z,-1.11
2023-01-20T23:35:51.151Z,-1.11
2023-01-20T23:38:17.463Z,-1.13
2023-01-20T23:40:47.603Z,-1.13
2023-01-20T23:43:13.923Z,-1.16
2023-01-20T23:45:40.269Z,-1.20
2023-01-20T23:48:06.594Z,-1.20
2023-01-20T23:50:33.632Z,-1.14
2023-01-20T23:52:59.962Z,-1.08
2023-01-20T23:55:26.289Z,-1.10
2023-01-20T23:57:53.937Z,-1.09
